sensor_id;sensor_type;location;lat;lon;timestamp;temperature;humidity
30893;DHT22;17595;50.884;4.346;2023-10-19T00:01:13;16.00;99.90
30893;DHT22;17595;50.884;4.346;2023-10-19T00:03:41;16.00;99.90
30893;DHT22;17595;50.884;4.346;2023-10-19T00:06:07;16.10;99.90
30893;DHT22;17595;50.884;4.346;2023-10-19T00:08:33;16.00;99.90
30893;DHT22;17595;50.884;4.346;2023-10-19T00:11:08;16.10;99.90
30893;DHT22;17595;50.884;4.346;2023-10-19T00:13:38;16.10;99.90
30893;DHT22;17595;50.884;4.346;2023-10-19T00:16:04;16.10;99.90
30893;DHT22;17595;50.884;4.346;2023-10-19T00:18:43;16.10;99.90
30893;DHT22;17595;50.884;4.346;2023-10-19T00:21:10;16.10;99.90
30893;DHT22;17595;50.884;4.346;2023-10-19T00:23:58;16.10;99.90
30893;DHT22;17595;50.884;4.346;2023-10-19T00:26:26;16.20;99.90
30893;DHT22;17595;50.884;4.346;2023-10-19T00:28:52;16.30;99.90
30893;DHT22;17595;50.884;4.346;2023-10-19T00:31:21;16.20;99.90
30893;DHT22;17595;50.884;4.346;2023-10-19T00:33:47;16.30;99.90
30893;DHT22;17595;50.884;4.346;2023-10-19T00:36:13;16.30;99.90
30893;DHT22;17595;50.884;4.346;2023-10-19T00:38:40;16.20;99.90
30893;DHT22;17595;50.884;4.346;2023-10-19T00:41:23;16.20;99.90
30893;DHT22;17595;50.884;4.346;2023-10-19T00:43:56;16.30;99.90
30893;DHT22;17595;50.884;4.346;2023-10-19T00:46:28;16.20;99.90
30893;DHT22;17595;50.884;4.346;2023-10-19T00:49:08;16.20;99.90
30893;DHT22;17595;50.884;4.346;2023-10-19T00:51:36;16.20;99.90
30893;DHT22;17595;50.884;4.346;2023-10-19T00:54:09;16.20;99.90
30893;DHT22;17595;50.884;4.346;2023-10-19T00:56:43;16.20;99.90
30893;DHT22;17595;50.884;4.346;2023-10-19T00:59:19;16.00;99.90
30893;DHT22;17595;50.884;4.346;2023-10-19T01:01:53;16.10;99.90
30893;DHT22;17595;50.884;4.346;2023-10-19T01:04:20;16.10;99.90
30893;DHT22;17595;50.884;4.346;2023-10-19T01:06:51;16.10;99.90
30893;DHT22;17595;50.884;4.346;2023-10-19T01:09:30;16.10;99.90
30893;DHT22;17595;50.884;4.346;2023-10-19T01:12:00;16.10;99.90
30893;DHT22;17595;50.884;4.346;2023-10-19T01:14:31;16.20;99.90
30893;DHT22;17595;50.884;4.346;2023-10-19T01:16:57;16.20;99.90
30893;DHT22;17595;50.884;4.346;2023-10-19T01:19:24;16.20;99.90
30893;DHT22;17595;50.884;4.346;2023-10-19T01:21:52;16.20;99.90
30893;DHT22;17595;50.884;4.346;2023-10-19T01:24:24;16.20;99.90
30893;DHT22;17595;50.884;4.346;2023-10-19T01:27:05;16.30;99.90
30893;DHT22;17595;50.884;4.346;2023-10-19T01:29:36;16.30;99.90
30893;DHT22;17595;50.884;4.346;2023-10-19T01:32:07;16.40;99.90
30893;DHT22;17595;50.884;4.346;2023-10-19T01:34:37;16.40;99.90
30893;DHT22;17595;50.884;4.346;2023-10-19T01:37:03;16.40;99.90
30893;DHT22;17595;50.884;4.346;2023-10-19T01:39:35;16.40;99.90
30893;DHT22;17595;50.884;4.346;2023-10-19T01:42:02;16.30;99.90
30893;DHT22;17595;50.884;4.346;2023-10-19T01:44:32;16.30;99.90
30893;DHT22;17595;50.884;4.346;2023-10-19T01:47:01;16.40;99.90
30893;DHT22;17595;50.884;4.346;2023-10-19T01:49:27;16.40;99.90
30893;DHT22;17595;50.884;4.346;2023-10-19T01:51:55;16.40;99.90
30893;DHT22;17595;50.884;4.346;2023-10-19T01:54:23;16.40;99.90
30893;DHT22;17595;50.884;4.346;2023-10-19T01:56:54;16.30;99.90
30893;DHT22;17595;50.884;4.346;2023-10-19T01:59:23;16.30;99.90
30893;DHT22;17595;50.884;4.346;2023-10-19T02:01:55;16.30;99.90
30893;DHT22;17595;50.884;4.346;2023-10-19T02:04:21;16.30;99.90
30893;DHT22;17595;50.884;4.346;2023-10-19T02:06:47;16.30;99.90
30893;DHT22;17595;50.884;4.346;2023-10-19T02:09:14;16.30;99.90
30893;DHT22;17595;50.884;4.346;2023-10-19T02:11:59;16.30;99.90
30893;DHT22;17595;50.884;4.346;2023-10-19T02:14:26;16.30;99.90
30893;DHT22;17595;50.884;4.346;2023-10-19T02:16:53;16.30;99.90
30893;DHT22;17595;50.884;4.346;2023-10-19T02:19:22;16.20;99.90
30893;DHT22;17595;50.884;4.346;2023-10-19T02:21:56;16.30;99.90
30893;DHT22;17595;50.884;4.346;2023-10-19T02:24:22;16.40;99.90
30893;DHT22;17595;50.884;4.346;2023-10-19T02:26:50;16.30;99.90
30893;DHT22;17595;50.884;4.346;2023-10-19T02:29:19;16.30;99.90
30893;DHT22;17595;50.884;4.346;2023-10-19T02:31:45;16.20;99.90
30893;DHT22;17595;50.884;4.346;2023-10-19T02:34:13;16.30;99.90
30893;DHT22;17595;50.884;4.346;2023-10-19T02:36:41;16.30;99.90
30893;DHT22;17595;50.884;4.346;2023-10-19T02:39:09;16.20;99.90
30893;DHT22;17595;50.884;4.346;2023-10-19T02:41:36;16.20;99.90
30893;DHT22;17595;50.884;4.346;2023-10-19T02:44:07;16.20;99.90
30893;DHT22;17595;50.884;4.346;2023-10-19T02:46:49;16.20;99.90
30893;DHT22;17595;50.884;4.346;2023-10-19T02:49:16;16.20;99.90
30893;DHT22;17595;50.884;4.346;2023-10-19T02:51:46;16.20;99.90
30893;DHT22;17595;50.884;4.346;2023-10-19T02:54:14;16.10;99.90
30893;DHT22;17595;50.884;4.346;2023-10-19T02:56:47;16.10;99.90
30893;DHT22;17595;50.884;4.346;2023-10-19T02:59:17;16.10;99.90
30893;DHT22;17595;50.884;4.346;2023-10-19T03:01:48;16.10;99.90
30893;DHT22;17595;50.884;4.346;2023-10-19T03:04:14;16.20;99.90
30893;DHT22;17595;50.884;4.346;2023-10-19T03:06:41;16.20;99.90
30893;DHT22;17595;50.884;4.346;2023-10-19T03:09:08;16.10;99.90
30893;DHT22;17595;50.884;4.346;2023-10-19T03:11:45;16.20;99.90
30893;DHT22;17595;50.884;4.346;2023-10-19T03:14:11;16.20;99.90
30893;DHT22;17595;50.884;4.346;2023-10-19T03:16:39;16.20;99.90
30893;DHT22;17595;50.884;4.346;2023-10-19T03:19:07;16.20;99.90
30893;DHT22;17595;50.884;4.346;2023-10-19T03:21:34;16.20;99.90
30893;DHT22;17595;50.884;4.346;2023-10-19T03:24:08;16.30;99.90
30893;DHT22;17595;50.884;4.346;2023-10-19T03:26:38;16.40;99.90
30893;DHT22;17595;50.884;4.346;2023-10-19T03:29:08;16.40;99.90
30893;DHT22;17595;50.884;4.346;2023-10-19T03:31:38;16.30;99.90
30893;DHT22;17595;50.884;4.346;2023-10-19T03:34:09;16.30;99.90
30893;DHT22;17595;50.884;4.346;2023-10-19T03:36:35;16.40;99.90
30893;DHT22;17595;50.884;4.346;2023-10-19T03:39:02;16.40;99.90
30893;DHT22;17595;50.884;4.346;2023-10-19T03:41:37;16.40;99.90
30893;DHT22;17595;50.884;4.346;2023-10-19T03:44:07;16.40;99.90
30893;DHT22;17595;50.884;4.346;2023-10-19T03:46:34;16.50;99.90
30893;DHT22;17595;50.884;4.346;2023-10-19T03:49:03;16.50;99.90
30893;DHT22;17595;50.884;4.346;2023-10-19T03:51:38;16.60;99.90
30893;DHT22;17595;50.884;4.346;2023-10-19T03:54:26;16.60;99.90
30893;DHT22;17595;50.884;4.346;2023-10-19T03:56:53;16.60;99.90
30893;DHT22;17595;50.884;4.346;2023-10-19T03:59:19;16.60;99.90
30893;DHT22;17595;50.884;4.346;2023-10-19T04:01:59;16.60;99.90
30893;DHT22;17595;50.884;4.346;2023-10-19T04:04:26;16.60;99.90
30893;DHT22;17595;50.884;4.346;2023-10-19T04:06:52;16.60;99.90
30893;DHT22;17595;50.884;4.346;2023-10-19T04:09:24;16.60;99.90
30893;DHT22;17595;50.884;4.346;2023-10-19T04:11:56;16.60;99.90
30893;DHT22;17595;50.884;4.346;2023-10-19T04:14:22;16.60;99.90
30893;DHT22;17595;50.884;4.346;2023-10-19T04:16:48;16.60;99.90
30893;DHT22;17595;50.884;4.346;2023-10-19T04:19:14;16.60;99.90
30893;DHT22;17595;50.884;4.346;2023-10-19T04:21:41;16.60;99.90
30893;DHT22;17595;50.884;4.346;2023-10-19T04:24:12;16.50;99.90
30893;DHT22;17595;50.884;4.346;2023-10-19T04:26:38;16.60;99.90
30893;DHT22;17595;50.884;4.346;2023-10-19T04:29:05;16.60;99.90
30893;DHT22;17595;50.884;4.346;2023-10-19T04:31:38;16.60;99.90
30893;DHT22;17595;50.884;4.346;2023-10-19T04:34:24;16.70;99.90
30893;DHT22;17595;50.884;4.346;2023-10-19T04:36:50;16.70;99.90
30893;DHT22;17595;50.884;4.346;2023-10-19T04:39:16;16.60;99.90
30893;DHT22;17595;50.884;4.346;2023-10-19T04:41:45;16.70;99.90
30893;DHT22;17595;50.884;4.346;2023-10-19T04:44:11;16.80;99.90
30893;DHT22;17595;50.884;4.346;2023-10-19T04:46:37;16.80;99.90
30893;DHT22;17595;50.884;4.346;2023-10-19T04:49:03;16.80;99.90
30893;DHT22;17595;50.884;4.346;2023-10-19T04:51:29;16.80;99.90
30893;DHT22;17595;50.884;4.346;2023-10-19T04:53:55;16.80;99.90
30893;DHT22;17595;50.884;4.346;2023-10-19T04:56:21;16.80;99.90
30893;DHT22;17595;50.884;4.346;2023-10-19T04:58:47;16.80;99.90
30893;DHT22;17595;50.884;4.346;2023-10-19T05:01:13;16.80;99.90
30893;DHT22;17595;50.884;4.346;2023-10-19T05:03:41;16.80;99.90
30893;DHT22;17595;50.884;4.346;2023-10-19T05:06:07;16.90;99.90
30893;DHT22;17595;50.884;4.346;2023-10-19T05:08:32;16.90;99.90
30893;DHT22;17595;50.884;4.346;2023-10-19T05:10:58;17.00;99.90
30893;DHT22;17595;50.884;4.346;2023-10-19T05:13:27;17.00;99.90
30893;DHT22;17595;50.884;4.346;2023-10-19T05:15:56;16.90;99.90
30893;DHT22;17595;50.884;4.346;2023-10-19T05:18:22;17.00;99.90
30893;DHT22;17595;50.884;4.346;2023-10-19T05:20:48;16.80;99.90
30893;DHT22;17595;50.884;4.346;2023-10-19T05:23:17;16.90;99.90
30893;DHT22;17595;50.884;4.346;2023-10-19T05:25:45;16.90;99.90
30893;DHT22;17595;50.884;4.346;2023-10-19T05:28:11;16.90;99.90
30893;DHT22;17595;50.884;4.346;2023-10-19T05:30:37;16.90;99.90
30893;DHT22;17595;50.884;4.346;2023-10-19T05:33:04;16.90;99.90
30893;DHT22;17595;50.884;4.346;2023-10-19T05:35:31;16.90;99.90
30893;DHT22;17595;50.884;4.346;2023-10-19T05:38:00;16.90;99.90
30893;DHT22;17595;50.884;4.346;2023-10-19T05:40:28;16.90;99.90
30893;DHT22;17595;50.884;4.346;2023-10-19T05:42:57;16.90;99.90
30893;DHT22;17595;50.884;4.346;2023-10-19T05:45:24;16.90;99.90
30893;DHT22;17595;50.884;4.346;2023-10-19T05:47:50;16.90;99.90
30893;DHT22;17595;50.884;4.346;2023-10-19T05:50:15;16.90;99.90
30893;DHT22;17595;50.884;4.346;2023-10-19T05:52:42;16.90;99.90
30893;DHT22;17595;50.884;4.346;2023-10-19T05:55:09;16.90;99.90
30893;DHT22;17595;50.884;4.346;2023-10-19T05:57:39;16.90;99.90
30893;DHT22;17595;50.884;4.346;2023-10-19T06:00:09;17.00;99.90
30893;DHT22;17595;50.884;4.346;2023-10-19T06:02:47;17.00;99.90
30893;DHT22;17595;50.884;4.346;2023-10-19T06:05:14;17.00;99.90
30893;DHT22;17595;50.884;4.346;2023-10-19T06:07:44;17.00;99.90
30893;DHT22;17595;50.884;4.346;2023-10-19T06:10:12;16.90;99.90
30893;DHT22;17595;50.884;4.346;2023-10-19T06:12:42;16.90;99.90
30893;DHT22;17595;50.884;4.346;2023-10-19T06:15:12;16.90;99.90
30893;DHT22;17595;50.884;4.346;2023-10-19T06:17:39;17.00;99.90
30893;DHT22;17595;50.884;4.346;2023-10-19T06:20:07;16.90;99.90
30893;DHT22;17595;50.884;4.346;2023-10-19T06:22:35;16.90;99.90
30893;DHT22;17595;50.884;4.346;2023-10-19T06:25:02;17.00;99.90
30893;DHT22;17595;50.884;4.346;2023-10-19T06:27:30;16.90;99.90
30893;DHT22;17595;50.884;4.346;2023-10-19T06:29:57;16.90;99.90
30893;DHT22;17595;50.884;4.346;2023-10-19T06:32:24;17.00;99.90
30893;DHT22;17595;50.884;4.346;2023-10-19T06:34:49;16.90;99.90
30893;DHT22;17595;50.884;4.346;2023-10-19T06:37:15;17.00;99.90
30893;DHT22;17595;50.884;4.346;2023-10-19T06:39:41;16.90;99.90
30893;DHT22;17595;50.884;4.346;2023-10-19T06:42:09;16.90;99.90
30893;DHT22;17595;50.884;4.346;2023-10-19T06:44:40;17.00;99.90
30893;DHT22;17595;50.884;4.346;2023-10-19T06:47:07;16.90;99.90
30893;DHT22;17595;50.884;4.346;2023-10-19T06:49:33;16.90;99.90
30893;DHT22;17595;50.884;4.346;2023-10-19T06:51:59;16.90;99.90
30893;DHT22;17595;50.884;4.346;2023-10-19T06:54:25;17.00;99.90
30893;DHT22;17595;50.884;4.346;2023-10-19T06:56:53;17.10;99.90
30893;DHT22;17595;50.884;4.346;2023-10-19T06:59:18;17.20;99.90
30893;DHT22;17595;50.884;4.346;2023-10-19T07:01:44;17.20;99.90
30893;DHT22;17595;50.884;4.346;2023-10-19T07:04:12;17.10;99.90
30893;DHT22;17595;50.884;4.346;2023-10-19T07:06:38;17.10;99.90
30893;DHT22;17595;50.884;4.346;2023-10-19T07:09:05;17.10;99.90
30893;DHT22;17595;50.884;4.346;2023-10-19T07:11:32;17.20;99.90
30893;DHT22;17595;50.884;4.346;2023-10-19T07:13:59;17.30;99.90
30893;DHT22;17595;50.884;4.346;2023-10-19T07:16:25;17.20;99.90
30893;DHT22;17595;50.884;4.346;2023-10-19T07:18:52;17.30;99.90
30893;DHT22;17595;50.884;4.346;2023-10-19T07:21:18;17.20;99.90
30893;DHT22;17595;50.884;4.346;2023-10-19T07:23:44;17.20;99.90
30893;DHT22;17595;50.884;4.346;2023-10-19T07:26:11;17.20;99.90
30893;DHT22;17595;50.884;4.346;2023-10-19T07:28:39;17.10;99.90
30893;DHT22;17595;50.884;4.346;2023-10-19T07:31:05;17.20;99.90
30893;DHT22;17595;50.884;4.346;2023-10-19T07:33:36;17.10;99.90
30893;DHT22;17595;50.884;4.346;2023-10-19T07:36:04;17.10;99.90
30893;DHT22;17595;50.884;4.346;2023-10-19T07:38:33;17.10;99.90
30893;DHT22;17595;50.884;4.346;2023-10-19T07:41:00;17.20;99.90
30893;DHT22;17595;50.884;4.346;2023-10-19T07:43:26;17.20;99.90
30893;DHT22;17595;50.884;4.346;2023-10-19T07:45:52;17.40;99.90
30893;DHT22;17595;50.884;4.346;2023-10-19T07:48:18;17.40;99.90
30893;DHT22;17595;50.884;4.346;2023-10-19T07:50:44;17.30;99.90
30893;DHT22;17595;50.884;4.346;2023-10-19T07:53:10;17.30;99.90
30893;DHT22;17595;50.884;4.346;2023-10-19T07:55:35;17.40;99.90
30893;DHT22;17595;50.884;4.346;2023-10-19T07:58:02;17.40;99.90
30893;DHT22;17595;50.884;4.346;2023-10-19T08:00:32;17.50;99.90
30893;DHT22;17595;50.884;4.346;2023-10-19T08:03:01;17.40;99.90
30893;DHT22;17595;50.884;4.346;2023-10-19T08:05:26;17.50;99.90
30893;DHT22;17595;50.884;4.346;2023-10-19T08:07:53;17.50;99.90
30893;DHT22;17595;50.884;4.346;2023-10-19T08:10:20;17.60;99.90
30893;DHT22;17595;50.884;4.346;2023-10-19T08:12:47;17.60;99.90
30893;DHT22;17595;50.884;4.346;2023-10-19T08:15:15;17.60;99.90
30893;DHT22;17595;50.884;4.346;2023-10-19T08:17:43;17.70;99.90
30893;DHT22;17595;50.884;4.346;2023-10-19T08:20:10;17.70;99.90
30893;DHT22;17595;50.884;4.346;2023-10-19T08:22:42;17.70;99.90
30893;DHT22;17595;50.884;4.346;2023-10-19T08:25:08;17.70;99.90
30893;DHT22;17595;50.884;4.346;2023-10-19T08:27:43;17.80;99.90
30893;DHT22;17595;50.884;4.346;2023-10-19T08:30:19;17.80;99.90
30893;DHT22;17595;50.884;4.346;2023-10-19T08:32:46;17.80;99.90
30893;DHT22;17595;50.884;4.346;2023-10-19T08:35:14;17.80;99.90
30893;DHT22;17595;50.884;4.346;2023-10-19T08:37:41;17.90;99.90
30893;DHT22;17595;50.884;4.346;2023-10-19T08:40:10;17.90;99.90
30893;DHT22;17595;50.884;4.346;2023-10-19T08:42:40;17.80;99.90
30893;DHT22;17595;50.884;4.346;2023-10-19T08:45:07;17.80;99.90
30893;DHT22;17595;50.884;4.346;2023-10-19T08:47:36;17.80;99.90
30893;DHT22;17595;50.884;4.346;2023-10-19T08:50:03;17.80;99.90
30893;DHT22;17595;50.884;4.346;2023-10-19T08:52:30;17.90;99.90
30893;DHT22;17595;50.884;4.346;2023-10-19T08:54:57;17.90;99.90
30893;DHT22;17595;50.884;4.346;2023-10-19T08:57:23;17.80;99.90
30893;DHT22;17595;50.884;4.346;2023-10-19T08:59:49;17.80;99.90
30893;DHT22;17595;50.884;4.346;2023-10-19T09:02:15;17.90;99.90
30893;DHT22;17595;50.884;4.346;2023-10-19T09:04:47;17.90;99.90
30893;DHT22;17595;50.884;4.346;2023-10-19T09:07:13;17.80;99.90
30893;DHT22;17595;50.884;4.346;2023-10-19T09:09:39;17.90;99.90
30893;DHT22;17595;50.884;4.346;2023-10-19T09:12:07;18.00;99.90
30893;DHT22;17595;50.884;4.346;2023-10-19T09:14:35;18.20;99.90
30893;DHT22;17595;50.884;4.346;2023-10-19T09:17:02;18.20;99.90
30893;DHT22;17595;50.884;4.346;2023-10-19T09:19:44;18.30;99.90
30893;DHT22;17595;50.884;4.346;2023-10-19T09:22:10;18.40;99.90
30893;DHT22;17595;50.884;4.346;2023-10-19T09:24:51;18.40;99.90
30893;DHT22;17595;50.884;4.346;2023-10-19T09:27:21;18.50;99.90
30893;DHT22;17595;50.884;4.346;2023-10-19T09:29:48;18.60;99.90
30893;DHT22;17595;50.884;4.346;2023-10-19T09:32:16;18.70;99.90
30893;DHT22;17595;50.884;4.346;2023-10-19T09:34:44;18.70;99.90
30893;DHT22;17595;50.884;4.346;2023-10-19T09:37:10;18.60;99.90
30893;DHT22;17595;50.884;4.346;2023-10-19T09:39:37;18.60;99.90
30893;DHT22;17595;50.884;4.346;2023-10-19T09:42:06;18.60;99.90
30893;DHT22;17595;50.884;4.346;2023-10-19T09:44:43;18.60;99.90
30893;DHT22;17595;50.884;4.346;2023-10-19T09:47:53;18.70;99.90
30893;DHT22;17595;50.884;4.346;2023-10-19T09:50:01;18.70;99.90
30893;DHT22;17595;50.884;4.346;2023-10-19T09:52:27;18.80;99.90
30893;DHT22;17595;50.884;4.346;2023-10-19T09:58:04;18.90;99.90
30893;DHT22;17595;50.884;4.346;2023-10-19T10:00:33;18.90;99.90
30893;DHT22;17595;50.884;4.346;2023-10-19T10:03:00;18.80;99.90
30893;DHT22;17595;50.884;4.346;2023-10-19T10:10:50;19.00;99.90
30893;DHT22;17595;50.884;4.346;2023-10-19T10:15:56;19.00;99.90
30893;DHT22;17595;50.884;4.346;2023-10-19T10:18:31;19.20;99.90
30893;DHT22;17595;50.884;4.346;2023-10-19T10:23:48;19.30;99.90
30893;DHT22;17595;50.884;4.346;2023-10-19T10:26:15;19.20;99.90
30893;DHT22;17595;50.884;4.346;2023-10-19T10:28:41;19.20;99.90
30893;DHT22;17595;50.884;4.346;2023-10-19T10:36:09;19.40;99.90
30893;DHT22;17595;50.884;4.346;2023-10-19T10:38:36;19.50;99.90
30893;DHT22;17595;50.884;4.346;2023-10-19T10:41:03;19.40;99.90
30893;DHT22;17595;50.884;4.346;2023-10-19T10:43:29;19.20;99.90
30893;DHT22;17595;50.884;4.346;2023-10-19T10:46:05;19.20;99.90
30893;DHT22;17595;50.884;4.346;2023-10-19T10:48:33;19.20;99.90
30893;DHT22;17595;50.884;4.346;2023-10-19T10:50:59;19.40;99.90
30893;DHT22;17595;50.884;4.346;2023-10-19T10:53:25;19.40;99.90
30893;DHT22;17595;50.884;4.346;2023-10-19T10:55:52;19.40;99.90
30893;DHT22;17595;50.884;4.346;2023-10-19T10:58:19;19.40;99.90
30893;DHT22;17595;50.884;4.346;2023-10-19T11:00:46;19.20;99.90
30893;DHT22;17595;50.884;4.346;2023-10-19T11:03:16;19.40;99.90
30893;DHT22;17595;50.884;4.346;2023-10-19T11:05:42;19.30;99.90
30893;DHT22;17595;50.884;4.346;2023-10-19T11:08:14;19.40;99.90
30893;DHT22;17595;50.884;4.346;2023-10-19T11:10:42;19.30;99.90
30893;DHT22;17595;50.884;4.346;2023-10-19T11:13:10;19.20;99.90
30893;DHT22;17595;50.884;4.346;2023-10-19T11:15:37;19.20;99.90
30893;DHT22;17595;50.884;4.346;2023-10-19T11:18:07;19.10;99.90
30893;DHT22;17595;50.884;4.346;2023-10-19T11:20:35;19.10;99.90
30893;DHT22;17595;50.884;4.346;2023-10-19T11:23:01;19.00;99.90
30893;DHT22;17595;50.884;4.346;2023-10-19T11:25:29;19.10;99.90
30893;DHT22;17595;50.884;4.346;2023-10-19T11:27:56;19.20;99.90
30893;DHT22;17595;50.884;4.346;2023-10-19T11:30:30;19.10;99.90
30893;DHT22;17595;50.884;4.346;2023-10-19T11:32:59;19.20;99.90
30893;DHT22;17595;50.884;4.346;2023-10-19T11:35:28;19.10;99.90
30893;DHT22;17595;50.884;4.346;2023-10-19T11:37:59;19.20;99.90
30893;DHT22;17595;50.884;4.346;2023-10-19T11:40:26;19.30;99.90
30893;DHT22;17595;50.884;4.346;2023-10-19T11:42:54;19.40;99.90
30893;DHT22;17595;50.884;4.346;2023-10-19T11:45:24;19.40;99.90
30893;DHT22;17595;50.884;4.346;2023-10-19T11:47:50;19.40;99.90
30893;DHT22;17595;50.884;4.346;2023-10-19T11:50:16;19.40;99.90
30893;DHT22;17595;50.884;4.346;2023-10-19T11:52:44;19.40;99.90
30893;DHT22;17595;50.884;4.346;2023-10-19T11:55:13;19.40;99.90
30893;DHT22;17595;50.884;4.346;2023-10-19T11:57:42;19.40;99.90
30893;DHT22;17595;50.884;4.346;2023-10-19T12:00:13;19.60;99.90
30893;DHT22;17595;50.884;4.346;2023-10-19T12:02:49;19.60;99.90
30893;DHT22;17595;50.884;4.346;2023-10-19T12:05:14;19.80;99.90
30893;DHT22;17595;50.884;4.346;2023-10-19T12:07:40;19.70;99.90
30893;DHT22;17595;50.884;4.346;2023-10-19T12:10:10;19.70;99.90
30893;DHT22;17595;50.884;4.346;2023-10-19T12:12:37;19.70;99.90
30893;DHT22;17595;50.884;4.346;2023-10-19T12:15:04;19.70;99.90
30893;DHT22;17595;50.884;4.346;2023-10-19T12:17:33;19.80;99.90
30893;DHT22;17595;50.884;4.346;2023-10-19T12:19:59;19.70;99.90
30893;DHT22;17595;50.884;4.346;2023-10-19T12:22:25;19.70;99.90
30893;DHT22;17595;50.884;4.346;2023-10-19T12:24:56;19.60;99.90
30893;DHT22;17595;50.884;4.346;2023-10-19T12:27:23;19.60;99.90
30893;DHT22;17595;50.884;4.346;2023-10-19T12:29:50;19.60;99.90
30893;DHT22;17595;50.884;4.346;2023-10-19T12:32:17;19.60;99.90
30893;DHT22;17595;50.884;4.346;2023-10-19T12:34:44;19.60;99.90
30893;DHT22;17595;50.884;4.346;2023-10-19T12:37:10;19.50;99.90
30893;DHT22;17595;50.884;4.346;2023-10-19T12:39:38;19.60;99.90
30893;DHT22;17595;50.884;4.346;2023-10-19T12:42:10;19.60;99.90
30893;DHT22;17595;50.884;4.346;2023-10-19T12:44:36;19.60;99.90
30893;DHT22;17595;50.884;4.346;2023-10-19T12:47:05;19.70;99.90
30893;DHT22;17595;50.884;4.346;2023-10-19T12:49:36;19.90;99.90
30893;DHT22;17595;50.884;4.346;2023-10-19T12:52:02;20.20;99.90
30893;DHT22;17595;50.884;4.346;2023-10-19T12:54:33;20.30;99.90
30893;DHT22;17595;50.884;4.346;2023-10-19T12:57:00;20.50;99.90
30893;DHT22;17595;50.884;4.346;2023-10-19T12:59:26;20.40;99.90
30893;DHT22;17595;50.884;4.346;2023-10-19T13:01:51;20.40;99.90
30893;DHT22;17595;50.884;4.346;2023-10-19T13:04:20;20.40;99.90
30893;DHT22;17595;50.884;4.346;2023-10-19T13:06:50;20.50;99.90
30893;DHT22;17595;50.884;4.346;2023-10-19T13:09:15;20.60;99.90
30893;DHT22;17595;50.884;4.346;2023-10-19T13:11:47;20.70;99.90
30893;DHT22;17595;50.884;4.346;2023-10-19T13:14:20;20.60;99.90
30893;DHT22;17595;50.884;4.346;2023-10-19T13:16:45;20.60;99.90
30893;DHT22;17595;50.884;4.346;2023-10-19T13:19:12;20.30;99.90
30893;DHT22;17595;50.884;4.346;2023-10-19T13:21:39;20.20;99.90
30893;DHT22;17595;50.884;4.346;2023-10-19T13:24:08;20.10;99.90
30893;DHT22;17595;50.884;4.346;2023-10-19T13:26:33;20.00;99.90
30893;DHT22;17595;50.884;4.346;2023-10-19T13:28:59;20.00;99.90
30893;DHT22;17595;50.884;4.346;2023-10-19T13:31:25;20.00;99.90
30893;DHT22;17595;50.884;4.346;2023-10-19T13:33:52;19.90;99.90
30893;DHT22;17595;50.884;4.346;2023-10-19T13:36:18;20.00;99.90
30893;DHT22;17595;50.884;4.346;2023-10-19T13:38:44;20.00;99.90
30893;DHT22;17595;50.884;4.346;2023-10-19T13:41:10;19.90;99.90
30893;DHT22;17595;50.884;4.346;2023-10-19T13:43:37;20.00;99.90
30893;DHT22;17595;50.884;4.346;2023-10-19T13:46:02;20.10;99.90
30893;DHT22;17595;50.884;4.346;2023-10-19T13:48:30;20.10;99.90
30893;DHT22;17595;50.884;4.346;2023-10-19T13:50:57;20.10;99.90
30893;DHT22;17595;50.884;4.346;2023-10-19T13:53:41;20.00;99.90
30893;DHT22;17595;50.884;4.346;2023-10-19T13:56:10;20.00;99.90
30893;DHT22;17595;50.884;4.346;2023-10-19T13:58:36;20.00;99.90
30893;DHT22;17595;50.884;4.346;2023-10-19T14:01:06;19.90;99.90
30893;DHT22;17595;50.884;4.346;2023-10-19T14:03:32;20.00;99.90
30893;DHT22;17595;50.884;4.346;2023-10-19T14:05:57;20.10;99.90
30893;DHT22;17595;50.884;4.346;2023-10-19T14:08:25;20.10;99.90
30893;DHT22;17595;50.884;4.346;2023-10-19T14:10:50;19.80;99.90
30893;DHT22;17595;50.884;4.346;2023-10-19T14:13:16;19.60;99.90
30893;DHT22;17595;50.884;4.346;2023-10-19T14:15:42;19.60;99.90
30893;DHT22;17595;50.884;4.346;2023-10-19T14:18:08;19.40;99.90
30893;DHT22;17595;50.884;4.346;2023-10-19T14:20:34;19.30;99.90
30893;DHT22;17595;50.884;4.346;2023-10-19T14:23:01;19.20;99.90
30893;DHT22;17595;50.884;4.346;2023-10-19T14:25:30;19.20;99.90
30893;DHT22;17595;50.884;4.346;2023-10-19T14:27:56;19.40;99.90
30893;DHT22;17595;50.884;4.346;2023-10-19T14:30:28;19.50;99.90
30893;DHT22;17595;50.884;4.346;2023-10-19T14:32:54;19.60;99.90
30893;DHT22;17595;50.884;4.346;2023-10-19T14:35:21;19.50;99.90
30893;DHT22;17595;50.884;4.346;2023-10-19T14:37:50;19.50;99.90
30893;DHT22;17595;50.884;4.346;2023-10-19T14:40:18;19.50;99.90
30893;DHT22;17595;50.884;4.346;2023-10-19T14:42:46;19.40;99.90
30893;DHT22;17595;50.884;4.346;2023-10-19T14:45:16;19.40;99.90
30893;DHT22;17595;50.884;4.346;2023-10-19T14:47:47;19.50;99.90
30893;DHT22;17595;50.884;4.346;2023-10-19T14:50:14;19.60;99.90
30893;DHT22;17595;50.884;4.346;2023-10-19T14:52:49;19.70;99.90
30893;DHT22;17595;50.884;4.346;2023-10-19T14:55:15;19.70;99.90
30893;DHT22;17595;50.884;4.346;2023-10-19T14:57:46;19.50;99.90
30893;DHT22;17595;50.884;4.346;2023-10-19T15:00:15;19.40;99.90
30893;DHT22;17595;50.884;4.346;2023-10-19T15:02:53;19.30;99.90
30893;DHT22;17595;50.884;4.346;2023-10-19T15:05:27;19.30;99.90
30893;DHT22;17595;50.884;4.346;2023-10-19T15:07:53;19.20;99.90
30893;DHT22;17595;50.884;4.346;2023-10-19T15:10:26;19.10;99.90
30893;DHT22;17595;50.884;4.346;2023-10-19T15:12:54;19.10;99.90
30893;DHT22;17595;50.884;4.346;2023-10-19T15:15:19;19.00;99.90
30893;DHT22;17595;50.884;4.346;2023-10-19T15:17:47;19.10;99.90
30893;DHT22;17595;50.884;4.346;2023-10-19T15:20:14;19.20;99.90
30893;DHT22;17595;50.884;4.346;2023-10-19T15:22:41;19.40;99.90
30893;DHT22;17595;50.884;4.346;2023-10-19T15:25:07;19.60;99.90
30893;DHT22;17595;50.884;4.346;2023-10-19T15:27:36;19.50;99.90
30893;DHT22;17595;50.884;4.346;2023-10-19T15:30:03;19.40;99.90
30893;DHT22;17595;50.884;4.346;2023-10-19T15:32:31;19.40;99.90
30893;DHT22;17595;50.884;4.346;2023-10-19T15:34:56;19.30;99.90
30893;DHT22;17595;50.884;4.346;2023-10-19T15:37:23;19.40;99.90
30893;DHT22;17595;50.884;4.346;2023-10-19T15:39:50;19.50;99.90
30893;DHT22;17595;50.884;4.346;2023-10-19T15:42:16;19.50;99.90
30893;DHT22;17595;50.884;4.346;2023-10-19T15:44:43;19.30;99.90
30893;DHT22;17595;50.884;4.346;2023-10-19T15:47:09;19.40;99.90
30893;DHT22;17595;50.884;4.346;2023-10-19T15:49:52;19.40;99.90
30893;DHT22;17595;50.884;4.346;2023-10-19T15:52:22;19.40;99.90
30893;DHT22;17595;50.884;4.346;2023-10-19T15:54:49;19.40;99.90
30893;DHT22;17595;50.884;4.346;2023-10-19T15:57:16;19.40;99.90